Currently 52°F in Beaumont, California, USA
52°F
64°F / 52°F
6 mph N
0.00"
Tuesday, February 25, 2020 10:49 PM PST

Beaumont, California Weather Summary
Last 36 Hours

Temperature Winds Hourly Humidity Dewpoint
Time Report Norm Report Norm Max Gusts Precip. Rpt. Norm Rpt. Norm Pressure
1Tue 10:49 PM  52.2°F  47°F  6 mph N  3 mph  12 mph  0.00"  17%  63%  7°F  34°F  30.32"
Tue 10:00 PM  52.0°F  47°F  6 mph N  3 mph  13 mph  0.00"  17%  62%  6°F  34°F  30.31"
3Tue 09:54 PM  51.8°F  47°F  7 mph N  3 mph  13 mph  ----  17%  62%  6°F  34°F  30.31"
Tue 09:00 PM  52.3°F  48°F  4 mph N  3 mph  12 mph  0.00"  15%  61%  4°F  34°F  30.30"
Tue 08:00 PM  54.3°F  49°F  3 mph NE  3 mph  16 mph  0.00"  13%  59%  2°F  34°F  30.27"
Tue 07:00 PM  55.6°F  50°F  4 mph N  3 mph  14 mph  0.00"  12%  56%  1°F  34°F  30.26"
Tue 06:00 PM  57.7°F  51°F  5 mph NE  3 mph  20 mph  0.00"  12%  52%  3°F  34°F  30.24"
Tue 05:00 PM  60.4°F  54°F  12 mph E  4 mph  25 mph  0.00"  11%  47%  3°F  33°F  30.21"
Tue 04:00 PM  62.4°F  56°F  13 mph NE  5 mph  24 mph  0.00"  11%  45%  5°F  34°F  30.20"
Tue 03:00 PM  63.0°F  57°F  15 mph E  6 mph  25 mph  0.00"  11%  44%  5°F  34°F  30.20"
Tue 02:00 PM  63.3°F  56°F  15 mph NE  5 mph  28 mph  0.00"  11%  44%  5°F  34°F  30.21"
2Tue 01:55 PM  63.7°F  56°F  13 mph E  6 mph  26 mph  ----  12%  44%  8°F  34°F  30.21"
Tue 01:00 PM  63.1°F  56°F  17 mph E  6 mph  25 mph  0.00"  11%  45%  5°F  34°F  30.22"
Tue 12:00 PM  62.4°F  55°F  17 mph E  6 mph  26 mph  0.00"  12%  46%  7°F  34°F  30.24"
Tue 11:00 AM  61.3°F  54°F  16 mph NE  6 mph  25 mph  0.00"  13%  49%  8°F  34°F  30.26"
Tue 10:00 AM  60.4°F  52°F  9 mph E  6 mph  23 mph  0.00"  15%  52%  10°F  34°F  30.24"
Tue 09:00 AM  58.5°F  51°F  11 mph NE  5 mph  20 mph  0.00"  18%  55%  13°F  34°F  30.23"
Tue 08:00 AM  57.4°F  49°F  7 mph N  3 mph  17 mph  0.00"  20%  57%  15°F  33°F  30.22"
Tue 07:00 AM  54.3°F  46°F  9 mph NW  3 mph  15 mph  0.00"  21%  60%  13°F  32°F  30.20"
Tue 06:00 AM  54.0°F  44°F  6 mph NW  3 mph  16 mph  0.00"  22%  61%  14°F  31°F  30.18"
Tue 05:00 AM  55.2°F  45°F  6 mph N  3 mph  13 mph  0.00"  22%  61%  15°F  32°F  30.19"
Tue 04:00 AM  56.1°F  45°F  5 mph N  3 mph  12 mph  0.00"  21%  61%  15°F  32°F  30.17"
Tue 03:00 AM  56.5°F  45°F  6 mph NW  3 mph  12 mph  0.00"  21%  62%  15°F  32°F  30.17"
Tue 02:00 AM  57.6°F  45°F  5 mph N  3 mph  10 mph  0.00"  23%  62%  18°F  32°F  30.17"
Tue 01:00 AM  56.8°F  45°F  5 mph N  3 mph  8 mph  0.00"  22%  62%  17°F  33°F  30.18"
Tue 12:00 AM  57.7°F  46°F  4 mph NW  3 mph  8 mph  0.00"  24%  62%  20°F  33°F  30.17"
Mon 11:00 PM  57.4°F  46°F  4 mph NW  3 mph  6 mph  0.00"  28%  64%  23°F  34°F  30.18"
Mon 10:00 PM  55.4°F  47°F  3 mph W  3 mph  6 mph  0.00"  38%  63%  29°F  34°F  30.19"
Mon 09:00 PM  54.0°F  47°F  3 mph W  3 mph  6 mph  0.00"  51%  61%  36°F  34°F  30.19"
Mon 08:00 PM  55.9°F  48°F  3 mph NW  3 mph  6 mph  0.00"  50%  59%  37°F  34°F  30.16"
Mon 07:00 PM  56.7°F  50°F  calm  3 mph  7 mph  0.00"  49%  55%  37°F  34°F  30.16"
Mon 06:00 PM  58.1°F  51°F  3 mph W  3 mph  3 mph  0.00"  47%  52%  37°F  33°F  30.15"
Mon 05:00 PM  63.9°F  54°F  1 mph SW  4 mph  7 mph  0.00"  40%  47%  38°F  33°F  30.14"
Mon 04:00 PM  65.8°F  55°F  3 mph S  5 mph  10 mph  0.00"  36%  45%  37°F  33°F  30.14"
Mon 03:00 PM  67.5°F  56°F  3 mph SW  6 mph  12 mph  0.00"  34%  44%  37°F  34°F  30.16"
Mon 02:00 PM  66.9°F  56°F  4 mph S  5 mph  12 mph  0.00"  36%  44%  38°F  34°F  30.18"
Mon 01:00 PM  65.7°F  56°F  4 mph S  6 mph  10 mph  0.00"  35%  45%  36°F  33°F  30.19"
Mon 12:00 PM  64.8°F  55°F  6 mph S  6 mph  10 mph  0.00"  36%  46%  36°F  34°F  30.23"
Mon 11:00 AM  62.8°F  53°F  calm  6 mph  9 mph  0.00"  47%  49%  41°F  34°F  30.25"

  1. Current weather data. No green row appears if the current weather data is also the high or low for the current day.
  2. High temperature for the current day.
  3. Low temperature for the current day.

The Beaumont, California weather pages are a service of WeatherCurrents. Cherry Valley is located in northern Riverside County, California, a community of the northern part of Beaumont, along the Interstate 10 highway, in the San Gorgonio pass area, between the communities of Calimesa, Banning.
Copyright ©2020  WeatherCurrents. All rights reserved. - Submit questions and comments - Privacy Policy

This page automatically refreshes every 10 minutes.